Terminal Aerodrome Forecast
Issued by NWS

Home | Current Version | Previous Version | Text Only | Print | Product List | Glossary On
Versions: 1 2 3 4 5 6 7 8 9 10 11 12 13 14 15 16 17 18 19 20 21 22 23 24 25 26 27 28 29 30 31
000
FTUS43 KLOT 281720
TAFDPA
TAF
KDPA 281720Z 2818/2918 20006KT P6SM OVC150
     FM290000 13005KT P6SM OVC120 PROB30 2908/2912 4SM -SHRA OVC040
     FM291200 14006KT P6SM VCSH OVC040
     FM291400 14007KT 6SM -SHRA OVC040=

USA.gov is the U.S. government's official web portal to all federal, state and local government web resources and services.